createdAt,value
2019-01-21T00:00:07.730Z,39.00
2019-01-21T00:01:24.928Z,38.63
2019-01-21T00:02:29.039Z,39.18
2019-01-21T00:03:33.163Z,39.95
2019-01-21T00:04:37.303Z,38.78
2019-01-21T00:05:41.399Z,41.70
2019-01-21T00:06:45.460Z,41.10
2019-01-21T00:07:49.533Z,38.58
2019-01-21T00:08:53.627Z,38.40
2019-01-21T00:09:57.688Z,38.92
2019-01-21T00:11:01.819Z,40.45
2019-01-21T00:12:05.889Z,37.28
2019-01-21T00:13:09.975Z,35.75
2019-01-21T00:14:14.147Z,38.50
2019-01-21T00:15:18.220Z,34.35
2019-01-21T00:16:22.291Z,33.25
2019-01-21T00:17:26.355Z,35.63
2019-01-21T00:18:30.454Z,32.42
2019-01-21T00:19:34.536Z,35.40
2019-01-21T00:20:38.603Z,37.40
2019-01-21T00:21:42.664Z,32.60
2019-01-21T00:22:46.731Z,30.95
2019-01-21T00:23:50.811Z,37.13
2019-01-21T00:24:54.887Z,31.48
2019-01-21T00:25:58.962Z,30.97
2019-01-21T00:27:03.018Z,28.12
2019-01-21T00:28:07.126Z,37.60
2019-01-21T00:29:11.347Z,32.80
2019-01-21T00:30:15.527Z,26.45
2019-01-21T00:31:19.585Z,28.87
2019-01-21T00:32:23.626Z,34.70
2019-01-21T00:33:27.699Z,30.68
2019-01-21T00:34:31.762Z,31.37
2019-01-21T00:35:35.842Z,28.83
2019-01-21T00:36:39.911Z,28.73
2019-01-21T00:37:44.043Z,28.83
2019-01-21T00:38:48.131Z,25.97
2019-01-21T00:39:52.191Z,29.87
2019-01-21T00:40:56.279Z,25.85
2019-01-21T00:42:00.340Z,29.55
2019-01-21T00:43:04.407Z,23.60
2019-01-21T00:44:08.638Z,25.32
2019-01-21T00:45:12.870Z,24.45
2019-01-21T00:46:16.955Z,26.02
2019-01-21T00:47:21.008Z,29.63
2019-01-21T00:48:25.116Z,27.30
2019-01-21T00:49:29.255Z,25.02
2019-01-21T00:50:33.326Z,24.75
2019-01-21T00:51:37.442Z,25.23
2019-01-21T00:52:41.511Z,25.55
2019-01-21T00:53:45.573Z,21.87
2019-01-21T00:54:51.013Z,26.30
2019-01-21T00:55:55.275Z,22.50
2019-01-21T00:56:59.372Z,23.57
2019-01-21T00:58:03.435Z,22.10
2019-01-21T00:59:07.581Z,24.25
2019-01-21T01:00:15.428Z,21.35
2019-01-21T01:01:19.499Z,24.43
2019-01-21T01:02:23.595Z,27.70
2019-01-21T01:03:27.667Z,25.25
2019-01-21T01:04:31.738Z,21.05
2019-01-21T01:05:35.815Z,25.52
2019-01-21T01:06:39.901Z,24.95
2019-01-21T01:07:44.047Z,24.20
2019-01-21T01:08:48.116Z,23.80
2019-01-21T01:09:52.177Z,22.60
2019-01-21T01:10:56.239Z,22.70
2019-01-21T01:12:00.293Z,21.10
2019-01-21T01:13:04.413Z,23.38
2019-01-21T01:14:08.598Z,26.90
2019-01-21T01:15:12.943Z,26.25
2019-01-21T01:16:17.015Z,21.12
2019-01-21T01:17:21.088Z,21.62
2019-01-21T01:18:25.212Z,20.95
2019-01-21T01:19:29.285Z,22.05
2019-01-21T01:20:33.370Z,25.90
2019-01-21T01:21:37.436Z,25.60
2019-01-21T01:22:41.511Z,23.47
2019-01-21T01:23:45.601Z,26.73
2019-01-21T01:24:49.710Z,21.65
2019-01-21T01:25:53.772Z,25.43
2019-01-21T01:26:57.827Z,21.55
2019-01-21T01:28:01.901Z,21.97
2019-01-21T01:29:06.018Z,24.70
2019-01-21T01:30:11.875Z,21.87
2019-01-21T01:31:15.943Z,20.05
2019-01-21T01:32:20.002Z,23.02
2019-01-21T01:33:24.067Z,23.18
2019-01-21T01:34:28.159Z,23.77
2019-01-21T01:35:32.213Z,21.90
2019-01-21T01:36:36.300Z,23.98
2019-01-21T01:37:40.767Z,23.73
2019-01-21T01:38:44.851Z,23.40
2019-01-21T01:39:48.952Z,24.82
2019-01-21T01:40:53.017Z,21.50
2019-01-21T01:41:57.104Z,22.15
2019-01-21T01:43:01.530Z,22.67
2019-01-21T01:44:05.594Z,22.80
2019-01-21T01:45:11.115Z,25.23
2019-01-21T01:46:15.218Z,22.55
2019-01-21T01:47:19.291Z,20.08
2019-01-21T01:48:23.375Z,23.05
2019-01-21T01:49:27.436Z,24.05
2019-01-21T01:50:31.690Z,24.02
2019-01-21T01:51:35.759Z,24.10
2019-01-21T01:52:39.825Z,22.15
2019-01-21T01:53:43.973Z,24.37
2019-01-21T01:54:48.110Z,24.52
2019-01-21T01:55:52.276Z,21.37
2019-01-21T01:56:56.463Z,22.35
2019-01-21T01:58:02.464Z,23.40
2019-01-21T01:59:06.559Z,23.55
2019-01-21T02:00:12.664Z,22.35
2019-01-21T02:01:16.743Z,26.87
2019-01-21T02:02:20.996Z,21.90
2019-01-21T02:03:25.503Z,23.45
2019-01-21T02:04:29.659Z,23.42
2019-01-21T02:05:33.715Z,22.17
2019-01-21T02:06:37.826Z,21.65
2019-01-21T02:07:41.971Z,23.18
2019-01-21T02:08:46.026Z,23.77
2019-01-21T02:09:50.125Z,18.45
2019-01-21T02:10:54.266Z,26.12
2019-01-21T02:11:58.447Z,20.85
2019-01-21T02:13:02.514Z,23.22
2019-01-21T02:14:06.627Z,19.82
2019-01-21T02:15:11.290Z,21.65
2019-01-21T02:16:15.415Z,23.45
2019-01-21T02:17:19.489Z,19.80
2019-01-21T02:18:23.568Z,20.88
2019-01-21T02:19:29.535Z,20.17
2019-01-21T02:20:33.595Z,22.50
2019-01-21T02:21:37.896Z,21.50
2019-01-21T02:22:44.322Z,20.65
2019-01-21T02:23:51.572Z,20.90
2019-01-21T02:24:56.591Z,21.57
2019-01-21T02:26:02.035Z,25.20
2019-01-21T02:27:32.188Z,22.65
2019-01-21T02:29:11.030Z,18.57
2019-01-21T02:30:54.577Z,15.58
2019-01-21T02:32:41.935Z,21.37
2019-01-21T02:34:28.519Z,19.05
2019-01-21T02:36:08.738Z,22.35
2019-01-21T02:37:47.340Z,18.60
2019-01-21T02:39:18.132Z,26.60
2019-01-21T02:40:37.816Z,23.77
2019-01-21T02:42:32.308Z,19.73
2019-01-21T02:44:10.249Z,22.95
2019-01-21T02:45:46.936Z,21.02
2019-01-21T02:47:15.129Z,18.73
2019-01-21T02:48:30.054Z,20.48
2019-01-21T02:50:29.535Z,19.55
2019-01-21T02:52:12.398Z,21.27
2019-01-21T02:53:58.111Z,19.23
2019-01-21T02:55:11.621Z,20.50
2019-01-21T02:56:47.532Z,22.22
2019-01-21T02:58:43.999Z,21.73
2019-01-21T03:00:02.128Z,23.12
2019-01-21T03:01:30.902Z,24.43
2019-01-21T03:03:00.995Z,20.88
2019-01-21T03:04:47.343Z,19.75
2019-01-21T03:06:34.682Z,19.30
2019-01-21T03:08:15.568Z,20.75
2019-01-21T03:10:00.834Z,18.73
2019-01-21T03:11:30.490Z,20.30
2019-01-21T03:12:58.319Z,19.10
2019-01-21T03:14:44.882Z,19.27
2019-01-21T03:16:24.591Z,16.27
2019-01-21T03:18:34.931Z,18.70
2019-01-21T03:20:20.883Z,18.05
2019-01-21T03:22:19.320Z,20.90
2019-01-21T03:24:00.543Z,17.12
2019-01-21T03:25:43.728Z,22.37
2019-01-21T03:27:14.315Z,21.50
2019-01-21T03:28:45.261Z,20.95
2019-01-21T03:30:42.510Z,18.65
2019-01-21T03:32:28.060Z,22.58
2019-01-21T03:34:07.874Z,19.00
2019-01-21T03:35:45.362Z,19.55
2019-01-21T03:37:22.305Z,21.17
2019-01-21T03:39:16.622Z,20.32
2019-01-21T03:41:01.712Z,21.48
2019-01-21T03:42:43.884Z,21.30
2019-01-21T03:44:36.461Z,22.90
2019-01-21T03:46:13.828Z,21.50
2019-01-21T03:47:28.383Z,25.43
2019-01-21T03:48:47.952Z,23.55
2019-01-21T03:50:48.323Z,23.90
2019-01-21T03:52:33.122Z,21.57
2019-01-21T03:54:09.427Z,24.30
2019-01-21T03:55:15.822Z,21.90
2019-01-21T03:56:54.381Z,19.40
2019-01-21T03:58:23.266Z,19.55
2019-01-21T04:00:13.963Z,22.67
2019-01-21T04:01:49.074Z,20.35
2019-01-21T04:03:31.631Z,18.05
2019-01-21T04:05:12.391Z,19.75
2019-01-21T04:06:33.570Z,18.00
2019-01-21T04:08:02.784Z,18.30
2019-01-21T04:10:06.043Z,18.90
2019-01-21T04:11:54.152Z,15.58
2019-01-21T04:13:32.356Z,18.50
2019-01-21T04:15:20.350Z,19.32
2019-01-21T04:16:54.175Z,18.73
2019-01-21T04:18:35.220Z,18.57
2019-01-21T04:20:06.157Z,20.35
2019-01-21T04:21:54.677Z,16.67
2019-01-21T04:23:40.408Z,15.18
2019-01-21T04:25:24.344Z,14.13
2019-01-21T04:26:51.244Z,13.90
2019-01-21T04:28:24.847Z,17.37
2019-01-21T04:30:18.108Z,17.73
2019-01-21T04:31:43.688Z,16.85
2019-01-21T04:33:05.614Z,16.27
2019-01-21T04:34:41.839Z,16.85
2019-01-21T04:36:09.046Z,16.60
2019-01-21T04:38:18.404Z,15.72
2019-01-21T04:39:55.376Z,15.58
2019-01-21T04:41:21.335Z,17.90
2019-01-21T04:43:24.532Z,15.98
2019-01-21T04:44:53.968Z,18.17
2019-01-21T04:46:45.312Z,17.30
2019-01-21T04:48:12.532Z,17.15
2019-01-21T04:49:39.745Z,14.50
2019-01-21T04:51:20.858Z,17.10
2019-01-21T04:53:15.806Z,17.07
2019-01-21T04:54:53.843Z,16.20
2019-01-21T04:56:26.636Z,18.73
2019-01-21T04:58:10.754Z,14.98
2019-01-21T04:59:41.898Z,17.95
2019-01-21T05:01:39.495Z,16.77
2019-01-21T05:03:12.777Z,16.65
2019-01-21T05:04:42.362Z,12.98
2019-01-21T05:06:30.597Z,15.25
2019-01-21T05:08:16.947Z,16.05
2019-01-21T05:09:49.696Z,15.23
2019-01-21T05:11:23.494Z,14.25
2019-01-21T05:13:24.600Z,16.42
2019-01-21T05:15:15.119Z,14.43
2019-01-21T05:17:18.099Z,13.85
2019-01-21T05:18:57.292Z,17.32
2019-01-21T05:20:48.146Z,13.88
2019-01-21T05:22:47.156Z,17.40
2019-01-21T05:24:28.034Z,14.43
2019-01-21T05:26:24.351Z,17.27
2019-01-21T05:28:21.582Z,17.07
2019-01-21T05:29:54.396Z,16.23
2019-01-21T05:31:50.047Z,14.75
2019-01-21T05:33:33.232Z,17.62
2019-01-21T05:35:26.006Z,15.98
2019-01-21T05:37:00.499Z,17.50
2019-01-21T05:38:26.608Z,16.75
2019-01-21T05:40:06.102Z,18.52
2019-01-21T05:41:48.623Z,17.60
2019-01-21T05:43:26.127Z,14.98
2019-01-21T05:45:03.575Z,19.45
2019-01-21T05:46:40.015Z,15.18
2019-01-21T05:48:33.323Z,14.15
2019-01-21T05:50:30.528Z,14.00
2019-01-21T05:52:10.598Z,13.40
2019-01-21T05:53:44.261Z,16.57
2019-01-21T05:55:36.900Z,17.45
2019-01-21T05:56:54.156Z,13.43
2019-01-21T05:58:18.132Z,28.00
2019-01-21T05:59:51.905Z,26.12
2019-01-21T06:01:37.120Z,29.23
2019-01-21T06:03:25.598Z,26.02
2019-01-21T06:04:57.565Z,20.75
2019-01-21T06:06:33.855Z,21.23
2019-01-21T06:08:28.087Z,17.32
2019-01-21T06:09:41.556Z,19.02
2019-01-21T06:10:59.842Z,19.95
2019-01-21T06:12:35.663Z,20.65
2019-01-21T06:14:09.502Z,19.20
2019-01-21T06:16:02.319Z,18.25
2019-01-21T06:17:27.750Z,18.65
2019-01-21T06:19:09.323Z,22.90
2019-01-21T06:20:26.279Z,17.55
2019-01-21T06:22:02.076Z,16.95
2019-01-21T06:23:56.012Z,16.07
2019-01-21T06:25:50.984Z,14.33
2019-01-21T06:27:38.496Z,16.52
2019-01-21T06:29:18.427Z,13.48
2019-01-21T06:30:41.235Z,17.73
2019-01-21T06:32:15.863Z,15.05
2019-01-21T06:33:52.447Z,14.85
2019-01-21T06:35:20.566Z,14.50
2019-01-21T06:36:44.358Z,17.65
2019-01-21T06:38:23.939Z,17.27
2019-01-21T06:40:11.371Z,14.63
2019-01-21T06:41:45.399Z,15.35
2019-01-21T06:43:00.395Z,13.88
2019-01-21T06:44:49.272Z,19.48
2019-01-21T06:46:31.746Z,15.93
2019-01-21T06:48:06.818Z,14.13
2019-01-21T06:49:46.044Z,16.48
2019-01-21T06:51:39.428Z,13.93
2019-01-21T06:53:24.523Z,15.70
2019-01-21T06:55:10.231Z,18.75
2019-01-21T06:56:57.207Z,16.32
2019-01-21T06:58:50.264Z,22.20
2019-01-21T07:00:34.355Z,21.87
2019-01-21T07:02:11.247Z,17.12
2019-01-21T07:04:17.407Z,14.07
2019-01-21T07:05:58.531Z,15.25
2019-01-21T07:07:56.563Z,16.52
2019-01-21T07:09:23.464Z,17.50
2019-01-21T07:10:49.143Z,17.70
2019-01-21T07:12:02.895Z,16.65
2019-01-21T07:13:43.561Z,16.90
2019-01-21T07:15:21.546Z,18.17
2019-01-21T07:17:09.969Z,19.92
2019-01-21T07:18:59.943Z,19.52
2019-01-21T07:20:45.566Z,22.55
2019-01-21T07:22:10.903Z,17.80
2019-01-21T07:23:45.455Z,16.85
2019-01-21T07:25:24.445Z,20.65
2019-01-21T07:27:27.780Z,18.95
2019-01-21T07:29:16.125Z,18.27
2019-01-21T07:30:44.496Z,20.17
2019-01-21T07:32:30.378Z,23.73
2019-01-21T07:34:19.231Z,20.72
2019-01-21T07:36:28.738Z,18.90
2019-01-21T07:38:06.516Z,17.17
2019-01-21T07:39:43.291Z,20.27
2019-01-21T07:41:24.176Z,19.70
2019-01-21T07:43:13.031Z,20.77
2019-01-21T07:44:58.443Z,20.20
2019-01-21T07:46:58.659Z,19.57
2019-01-21T07:48:14.762Z,20.17
2019-01-21T07:50:11.864Z,21.95
2019-01-21T07:51:55.806Z,23.15
2019-01-21T07:53:28.594Z,25.48
2019-01-21T07:54:59.655Z,22.02
2019-01-21T07:56:37.905Z,23.22
2019-01-21T07:58:08.663Z,21.50
2019-01-21T08:00:00.103Z,20.70
2019-01-21T08:01:33.696Z,20.00
2019-01-21T08:03:23.487Z,21.35
2019-01-21T08:05:17.779Z,20.90
2019-01-21T08:06:47.519Z,20.62
2019-01-21T08:08:08.967Z,19.55
2019-01-21T08:09:43.459Z,21.35
2019-01-21T08:11:10.410Z,20.08
2019-01-21T08:12:59.950Z,21.17
2019-01-21T08:14:17.114Z,17.62
2019-01-21T08:16:09.973Z,21.50
2019-01-21T08:18:03.986Z,17.65
2019-01-21T08:19:53.451Z,19.57
2019-01-21T08:21:38.552Z,17.35
2019-01-21T08:23:30.558Z,20.10
2019-01-21T08:25:30.955Z,20.50
2019-01-21T08:26:56.575Z,17.37
2019-01-21T08:28:38.963Z,17.65
2019-01-21T08:30:11.319Z,17.52
2019-01-21T08:31:27.298Z,18.40
2019-01-21T08:32:50.699Z,20.15
2019-01-21T08:34:31.520Z,15.95
2019-01-21T08:36:07.807Z,19.10
2019-01-21T08:37:40.903Z,19.15
2019-01-21T08:39:37.935Z,17.23
2019-01-21T08:41:17.775Z,19.40
2019-01-21T08:42:47.222Z,18.80
2019-01-21T08:44:41.797Z,16.35
2019-01-21T08:46:24.295Z,19.40
2019-01-21T08:48:00.166Z,19.85
2019-01-21T08:50:15.672Z,18.42
2019-01-21T08:52:14.147Z,17.27
2019-01-21T08:54:07.249Z,18.02
2019-01-21T08:55:51.163Z,20.85
2019-01-21T08:57:36.510Z,18.25
2019-01-21T08:59:24.575Z,21.07
2019-01-21T09:01:06.679Z,18.82
2019-01-21T09:02:40.548Z,18.98
2019-01-21T09:04:37.628Z,20.68
2019-01-21T09:06:10.099Z,19.82
2019-01-21T09:07:43.592Z,17.48
2019-01-21T09:09:35.172Z,23.38
2019-01-21T09:11:19.021Z,16.17
2019-01-21T09:12:51.203Z,23.92
2019-01-21T09:14:30.356Z,18.73
2019-01-21T09:16:24.443Z,22.05
2019-01-21T09:17:56.896Z,21.50
2019-01-21T09:19:25.963Z,22.05
2019-01-21T09:21:25.159Z,20.52
2019-01-21T09:23:00.982Z,17.60
2019-01-21T09:24:49.986Z,21.65
2019-01-21T09:26:31.003Z,26.87
2019-01-21T09:28:12.459Z,22.58
2019-01-21T09:29:47.487Z,22.93
2019-01-21T09:31:50.625Z,25.62
2019-01-21T09:33:09.482Z,22.42
2019-01-21T09:34:39.958Z,22.40
2019-01-21T09:36:33.354Z,33.75
2019-01-21T09:37:50.327Z,33.28
2019-01-21T09:39:31.586Z,35.78
2019-01-21T09:41:00.314Z,26.87
2019-01-21T09:42:17.264Z,23.90
2019-01-21T09:44:14.354Z,23.02
2019-01-21T09:46:00.735Z,24.00
2019-01-21T09:47:03.360Z,23.15
2019-01-21T09:48:06.010Z,24.00
2019-01-21T09:49:08.699Z,25.80
2019-01-21T09:50:12.841Z,23.45
2019-01-21T09:51:16.920Z,22.25
2019-01-21T09:52:21.357Z,21.17
2019-01-21T09:53:25.514Z,28.07
2019-01-21T09:54:29.611Z,24.30
2019-01-21T09:55:34.053Z,27.27
2019-01-21T09:56:38.955Z,23.22
2019-01-21T09:57:43.014Z,22.87
2019-01-21T09:58:47.124Z,27.70
2019-01-21T10:00:01.624Z,24.27
2019-01-21T10:01:05.679Z,25.72
2019-01-21T10:02:10.369Z,28.05
2019-01-21T10:03:14.487Z,23.30
2019-01-21T10:04:23.170Z,26.42
2019-01-21T10:05:28.287Z,22.30
2019-01-21T10:06:41.542Z,25.15
2019-01-21T10:08:35.638Z,23.57
2019-01-21T10:10:02.208Z,28.98
2019-01-21T10:11:46.078Z,12.35
2019-01-21T10:13:46.232Z,24.57
2019-01-21T10:15:14.519Z,30.68
2019-01-21T10:16:45.203Z,25.72
2019-01-21T10:18:25.047Z,24.90
2019-01-21T10:19:58.905Z,26.52
2019-01-21T10:21:39.222Z,25.05
2019-01-21T10:23:30.275Z,22.70
2019-01-21T10:25:36.473Z,21.20
2019-01-21T10:27:28.175Z,22.35
2019-01-21T10:29:00.638Z,25.10
2019-01-21T10:30:37.550Z,20.88
2019-01-21T10:32:08.372Z,23.57
2019-01-21T10:34:00.131Z,22.58
2019-01-21T10:35:21.395Z,22.70
2019-01-21T10:37:06.271Z,22.15
2019-01-21T10:38:50.244Z,22.40
2019-01-21T10:40:47.427Z,22.67
2019-01-21T10:42:44.295Z,22.02
2019-01-21T10:44:32.312Z,23.30
2019-01-21T10:46:03.402Z,23.50
2019-01-21T10:47:48.873Z,24.02
2019-01-21T10:49:31.612Z,24.32
2019-01-21T10:51:15.551Z,24.75
2019-01-21T10:52:54.579Z,22.75
2019-01-21T10:54:22.939Z,23.07
2019-01-21T10:56:00.006Z,26.62
2019-01-21T10:57:35.067Z,29.55
2019-01-21T10:58:48.203Z,27.22
2019-01-21T11:00:15.173Z,21.97
2019-01-21T11:02:00.360Z,30.48
2019-01-21T11:03:17.542Z,23.98
2019-01-21T11:04:51.841Z,32.95
2019-01-21T11:06:44.280Z,30.52
2019-01-21T11:08:20.919Z,34.73
2019-01-21T11:10:06.083Z,27.27
2019-01-21T11:11:47.012Z,24.02
2019-01-21T11:13:34.747Z,23.00
2019-01-21T11:15:08.830Z,23.83
2019-01-21T11:16:38.988Z,28.15
2019-01-21T11:18:33.596Z,27.22
2019-01-21T11:20:13.115Z,26.23
2019-01-21T11:21:32.015Z,26.30
2019-01-21T11:23:25.206Z,27.00
2019-01-21T11:25:09.567Z,28.83
2019-01-21T11:26:49.112Z,25.77
2019-01-21T11:28:27.186Z,27.67
2019-01-21T11:29:57.179Z,24.07
2019-01-21T11:31:32.855Z,27.10
2019-01-21T11:33:17.863Z,27.02
2019-01-21T11:34:36.659Z,30.20
2019-01-21T11:36:25.330Z,27.13
2019-01-21T11:38:04.297Z,26.60
2019-01-21T11:39:37.103Z,29.05
2019-01-21T11:41:09.926Z,25.30
2019-01-21T11:42:52.099Z,32.00
2019-01-21T11:44:09.984Z,30.12
2019-01-21T11:46:07.313Z,27.05
2019-01-21T11:48:10.383Z,33.98
2019-01-21T11:49:49.843Z,27.05
2019-01-21T11:51:48.558Z,31.27
2019-01-21T11:53:15.522Z,27.02
2019-01-21T11:54:51.550Z,31.85
2019-01-21T11:56:30.323Z,28.00
2019-01-21T11:58:15.044Z,26.27
2019-01-21T11:59:56.013Z,21.52
2019-01-21T12:01:24.389Z,25.08
2019-01-21T12:03:11.330Z,25.25
2019-01-21T12:04:46.008Z,26.23
2019-01-21T12:06:03.045Z,34.60
2019-01-21T12:07:52.636Z,27.95
2019-01-21T12:09:45.204Z,25.80
2019-01-21T12:11:36.839Z,28.02
2019-01-21T12:13:00.203Z,24.23
2019-01-21T12:14:51.367Z,27.77
2019-01-21T12:16:43.387Z,27.48
2019-01-21T12:18:31.636Z,24.65
2019-01-21T12:20:22.639Z,23.87
2019-01-21T12:22:14.227Z,26.20
2019-01-21T12:23:42.803Z,29.02
2019-01-21T12:25:12.682Z,30.52
2019-01-21T12:26:52.455Z,33.53
2019-01-21T12:28:52.823Z,28.30
2019-01-21T12:30:49.836Z,32.30
2019-01-21T12:32:47.039Z,30.70
2019-01-21T12:34:24.793Z,28.12
2019-01-21T12:36:08.991Z,29.65
2019-01-21T12:37:25.687Z,28.70
2019-01-21T12:39:08.579Z,28.83
2019-01-21T12:40:46.487Z,29.50
2019-01-21T12:42:11.389Z,28.32
2019-01-21T12:43:42.708Z,24.43
2019-01-21T12:45:00.822Z,29.87
2019-01-21T12:46:50.794Z,32.80
2019-01-21T12:48:13.291Z,36.10
2019-01-21T12:49:49.124Z,27.58
2019-01-21T12:51:18.186Z,27.98
2019-01-21T12:52:39.958Z,26.45
2019-01-21T12:54:02.938Z,27.98
2019-01-21T12:55:41.925Z,28.07
2019-01-21T12:57:32.755Z,33.30
2019-01-21T12:58:58.968Z,22.22
2019-01-21T13:00:56.390Z,28.40
2019-01-21T13:02:28.295Z,26.85
2019-01-21T13:03:59.300Z,26.57
2019-01-21T13:05:31.412Z,27.40
2019-01-21T13:07:02.966Z,28.25
2019-01-21T13:08:31.655Z,24.80
2019-01-21T13:10:19.507Z,26.85
2019-01-21T13:12:09.683Z,26.75
2019-01-21T13:13:47.399Z,22.48
2019-01-21T13:15:23.096Z,21.40
2019-01-21T13:16:58.000Z,22.22
2019-01-21T13:18:46.081Z,23.00
2019-01-21T13:20:15.644Z,28.65
2019-01-21T13:22:14.887Z,22.73
2019-01-21T13:23:45.671Z,21.82
2019-01-21T13:25:27.338Z,23.12
2019-01-21T13:27:06.886Z,21.73
2019-01-21T13:28:44.860Z,21.57
2019-01-21T13:30:27.303Z,17.02
2019-01-21T13:32:21.591Z,23.35
2019-01-21T13:33:52.043Z,25.77
2019-01-21T13:35:43.412Z,25.55
2019-01-21T13:37:39.778Z,18.48
2019-01-21T13:39:14.671Z,15.48
2019-01-21T13:40:36.438Z,20.05
2019-01-21T13:42:17.399Z,21.45
2019-01-21T13:44:03.251Z,24.20
2019-01-21T13:45:47.270Z,20.17
2019-01-21T13:47:47.481Z,19.87
2019-01-21T13:49:33.107Z,20.45
2019-01-21T13:50:53.972Z,19.82
2019-01-21T13:52:32.693Z,18.32
2019-01-21T13:54:13.818Z,19.00
2019-01-21T13:55:56.271Z,20.45
2019-01-21T13:57:41.387Z,20.32
2019-01-21T13:59:19.747Z,23.15
2019-01-21T14:00:50.366Z,24.52
2019-01-21T14:02:11.626Z,21.30
2019-01-21T14:03:55.907Z,21.20
2019-01-21T14:05:52.965Z,21.70
2019-01-21T14:08:02.114Z,21.00
2019-01-21T14:09:53.480Z,18.85
2019-01-21T14:11:26.667Z,21.77
2019-01-21T14:13:02.267Z,23.42
2019-01-21T14:14:40.175Z,21.75
2019-01-21T14:16:21.188Z,23.22
2019-01-21T14:18:10.812Z,22.75
2019-01-21T14:19:36.838Z,24.12
2019-01-21T14:21:14.292Z,21.23
2019-01-21T14:22:49.711Z,17.80
2019-01-21T14:24:18.923Z,19.52
2019-01-21T14:26:13.082Z,23.50
2019-01-21T14:27:46.770Z,19.75
2019-01-21T14:29:24.738Z,19.27
2019-01-21T14:31:10.140Z,19.15
2019-01-21T14:33:13.789Z,19.65
2019-01-21T14:35:04.311Z,20.82
2019-01-21T14:36:41.818Z,19.77
2019-01-21T14:38:34.795Z,18.65
2019-01-21T14:39:52.071Z,16.85
2019-01-21T14:41:12.487Z,20.70
2019-01-21T14:42:42.954Z,23.55
2019-01-21T14:44:40.408Z,19.62
2019-01-21T14:46:34.053Z,21.12
2019-01-21T14:48:23.695Z,18.23
2019-01-21T14:49:48.920Z,21.90
2019-01-21T14:51:29.635Z,21.27
2019-01-21T14:53:07.563Z,20.85
2019-01-21T14:54:36.383Z,20.10
2019-01-21T14:56:10.000Z,17.27
2019-01-21T14:57:44.455Z,19.95
2019-01-21T14:59:01.631Z,21.00
2019-01-21T15:00:42.010Z,22.67
2019-01-21T15:02:11.160Z,22.60
2019-01-21T15:03:55.418Z,21.65
2019-01-21T15:05:22.323Z,23.02
2019-01-21T15:07:02.463Z,28.15
2019-01-21T15:08:35.784Z,23.15
2019-01-21T15:10:23.015Z,25.27
2019-01-21T15:12:18.965Z,27.05
2019-01-21T15:13:59.378Z,23.27
2019-01-21T15:15:31.511Z,25.20
2019-01-21T15:17:34.731Z,24.10
2019-01-21T15:18:53.727Z,23.52
2019-01-21T15:20:14.661Z,22.95
2019-01-21T15:22:01.882Z,22.93
2019-01-21T15:23:43.165Z,21.93
2019-01-21T15:25:19.599Z,22.10
2019-01-21T15:26:38.547Z,24.98
2019-01-21T15:28:09.067Z,22.35
2019-01-21T15:29:47.557Z,23.27
2019-01-21T15:31:23.342Z,26.55
2019-01-21T15:33:07.182Z,26.65
2019-01-21T15:34:55.258Z,31.10
2019-01-21T15:36:40.475Z,28.17
2019-01-21T15:38:22.262Z,34.00
2019-01-21T15:39:44.838Z,29.18
2019-01-21T15:41:42.637Z,31.75
2019-01-21T15:43:18.712Z,35.50
2019-01-21T15:45:06.101Z,29.60
2019-01-21T15:46:38.962Z,28.85
2019-01-21T15:48:09.597Z,30.95
2019-01-21T15:49:52.128Z,32.00
2019-01-21T15:51:46.399Z,32.17
2019-01-21T15:53:09.659Z,29.30
2019-01-21T15:54:25.897Z,34.27
2019-01-21T15:56:00.938Z,36.08
2019-01-21T15:57:41.783Z,33.95
2019-01-21T15:59:51.259Z,37.20
2019-01-21T16:01:28.940Z,29.52
2019-01-21T16:02:58.695Z,32.80
2019-01-21T16:04:35.596Z,31.10
2019-01-21T16:06:02.820Z,34.65
2019-01-21T16:07:22.997Z,32.55
2019-01-21T16:09:14.404Z,32.83
2019-01-21T16:11:05.615Z,30.72
2019-01-21T16:12:39.522Z,35.15
2019-01-21T16:14:27.778Z,33.83
2019-01-21T16:16:37.222Z,28.05
2019-01-21T16:18:08.132Z,29.23
2019-01-21T16:19:33.039Z,32.28
2019-01-21T16:21:31.088Z,27.77
2019-01-21T16:23:23.931Z,27.20
2019-01-21T16:24:52.762Z,30.92
2019-01-21T16:26:21.395Z,28.62
2019-01-21T16:27:36.217Z,26.85
2019-01-21T16:29:12.059Z,28.85
2019-01-21T16:30:49.619Z,26.50
2019-01-21T16:32:06.278Z,26.85
2019-01-21T16:33:33.338Z,32.42
2019-01-21T16:34:48.820Z,24.85
2019-01-21T16:36:12.964Z,25.30
2019-01-21T16:38:08.622Z,30.43
2019-01-21T16:39:46.382Z,25.60
2019-01-21T16:41:27.213Z,29.90
2019-01-21T16:42:29.837Z,30.12
2019-01-21T16:43:33.908Z,32.40
2019-01-21T16:44:37.982Z,33.75
2019-01-21T16:45:42.081Z,26.62
2019-01-21T16:46:46.207Z,28.00
2019-01-21T16:47:50.262Z,29.30
2019-01-21T16:48:54.344Z,29.25
2019-01-21T16:49:58.428Z,31.75
2019-01-21T16:51:02.489Z,34.05
2019-01-21T16:52:06.546Z,33.13
2019-01-21T16:53:10.831Z,31.50
2019-01-21T16:54:15.023Z,34.90
2019-01-21T16:55:19.104Z,32.90
2019-01-21T16:56:23.168Z,34.67
2019-01-21T16:57:27.222Z,32.28
2019-01-21T16:58:31.283Z,31.23
2019-01-21T16:59:35.351Z,32.53
2019-01-21T17:00:39.448Z,33.25
2019-01-21T17:01:43.507Z,28.17
2019-01-21T17:02:47.583Z,28.55
2019-01-21T17:03:51.658Z,30.05
2019-01-21T17:04:55.726Z,31.73
2019-01-21T17:05:59.795Z,31.60
2019-01-21T17:07:03.911Z,30.95
2019-01-21T17:08:08.040Z,35.95
2019-01-21T17:09:12.273Z,37.73
2019-01-21T17:10:16.331Z,33.63
2019-01-21T17:11:20.447Z,34.15
2019-01-21T17:12:24.581Z,32.23
2019-01-21T17:13:28.635Z,31.68
2019-01-21T17:14:32.702Z,32.05
2019-01-21T17:15:36.764Z,34.33
2019-01-21T17:16:40.883Z,28.62
2019-01-21T17:17:44.952Z,32.65
2019-01-21T17:18:49.012Z,31.35
2019-01-21T17:19:53.070Z,30.02
2019-01-21T17:20:57.119Z,32.55
2019-01-21T17:22:01.208Z,31.77
2019-01-21T17:23:05.304Z,34.05
2019-01-21T17:24:09.475Z,36.48
2019-01-21T17:25:13.627Z,29.07
2019-01-21T17:26:17.695Z,33.42
2019-01-21T17:27:21.847Z,30.27
2019-01-21T17:28:25.963Z,32.25
2019-01-21T17:29:30.070Z,35.55
2019-01-21T17:30:34.131Z,31.50
2019-01-21T17:31:38.196Z,31.93
2019-01-21T17:32:42.359Z,27.65
2019-01-21T17:33:46.443Z,32.23
2019-01-21T17:34:50.518Z,33.70
2019-01-21T17:35:54.578Z,30.25
2019-01-21T17:36:58.643Z,30.65
2019-01-21T17:38:02.719Z,31.35
2019-01-21T17:39:08.649Z,32.13
2019-01-21T17:40:14.266Z,30.55
2019-01-21T17:41:18.326Z,29.55
2019-01-21T17:42:22.378Z,33.20
2019-01-21T17:43:26.468Z,31.45
2019-01-21T17:44:30.527Z,31.02
2019-01-21T17:45:34.585Z,34.45
2019-01-21T17:46:38.646Z,33.95
2019-01-21T17:47:42.701Z,30.05
2019-01-21T17:48:46.815Z,29.65
2019-01-21T17:49:50.888Z,34.60
2019-01-21T17:50:54.946Z,41.98
2019-01-21T17:51:59.008Z,38.88
2019-01-21T17:53:03.072Z,35.48
2019-01-21T17:54:07.160Z,35.25
2019-01-21T17:55:11.690Z,33.95
2019-01-21T17:56:15.939Z,33.75
2019-01-21T17:57:19.999Z,31.68
2019-01-21T17:58:24.064Z,31.82
2019-01-21T17:59:28.135Z,30.60
2019-01-21T18:00:32.202Z,28.52
2019-01-21T18:01:39.387Z,29.52
2019-01-21T18:02:42.107Z,27.25
2019-01-21T18:03:46.174Z,28.55
2019-01-21T18:04:50.263Z,26.93
2019-01-21T18:05:54.323Z,25.95
2019-01-21T18:06:58.388Z,25.92
2019-01-21T18:08:02.450Z,31.40
2019-01-21T18:09:09.104Z,24.65
2019-01-21T18:10:14.471Z,28.05
2019-01-21T18:11:18.531Z,29.37
2019-01-21T18:12:22.587Z,26.20
2019-01-21T18:13:26.660Z,29.18
2019-01-21T18:14:30.757Z,29.72
2019-01-21T18:15:34.852Z,29.55
2019-01-21T18:16:38.921Z,26.55
2019-01-21T18:17:43.026Z,31.62
2019-01-21T18:18:47.087Z,27.70
2019-01-21T18:19:51.170Z,31.85
2019-01-21T18:20:55.239Z,31.27
2019-01-21T18:21:59.299Z,29.85
2019-01-21T18:23:03.363Z,32.75
2019-01-21T18:24:07.422Z,31.42
2019-01-21T18:25:12.085Z,31.10
2019-01-21T18:26:16.199Z,30.97
2019-01-21T18:27:20.299Z,28.23
2019-01-21T18:28:24.367Z,32.08
2019-01-21T18:29:28.440Z,31.73
2019-01-21T18:30:32.523Z,27.85
2019-01-21T18:31:36.588Z,28.95
2019-01-21T18:32:40.647Z,32.70
2019-01-21T18:33:44.724Z,31.17
2019-01-21T18:34:48.846Z,29.70
2019-01-21T18:35:52.939Z,27.77
2019-01-21T18:36:56.992Z,29.35
2019-01-21T18:38:01.111Z,29.55
2019-01-21T18:39:07.362Z,25.27
2019-01-21T18:40:16.410Z,27.22
2019-01-21T18:41:20.491Z,30.45
2019-01-21T18:42:24.551Z,29.77
2019-01-21T18:43:28.607Z,24.47
2019-01-21T18:44:32.718Z,29.52